createdAt,value
2023-04-21T00:00:00.508Z,13.09
2023-04-21T00:05:04.076Z,13.08
2023-04-21T00:10:10.992Z,13.06
2023-04-21T00:15:14.128Z,13.05
2023-04-21T00:20:17.103Z,13.04
2023-04-21T00:25:20.102Z,13.03
2023-04-21T00:30:23.710Z,13.03
2023-04-21T00:35:27.007Z,13.03
2023-04-21T00:40:30.860Z,13.03
2023-04-21T00:45:34.045Z,13.94
2023-04-21T00:50:37.282Z,16.59
2023-04-21T00:55:42.824Z,17.36
2023-04-21T01:00:45.856Z,16.15
2023-04-21T01:05:49.011Z,15.42
2023-04-21T01:10:52.023Z,14.91
2023-04-21T01:15:55.681Z,14.50
2023-04-21T01:20:59.866Z,14.16
2023-04-21T01:26:04.185Z,13.88
2023-04-21T01:31:07.287Z,13.65
2023-04-21T01:36:10.847Z,13.45
2023-04-21T01:41:13.897Z,13.27
2023-04-21T01:46:20.818Z,13.13
2023-04-21T01:51:23.959Z,13.02
2023-04-21T01:56:27.216Z,12.92
2023-04-21T02:01:30.788Z,12.84
2023-04-21T02:06:33.854Z,12.80
2023-04-21T02:11:36.924Z,13.65
2023-04-21T02:16:39.983Z,16.26
2023-04-21T02:21:43.017Z,17.01
2023-04-21T02:26:46.078Z,15.76
2023-04-21T02:32:00.764Z,14.95
2023-04-21T02:37:10.831Z,14.38
2023-04-21T02:42:13.854Z,13.94
2023-04-21T02:47:17.096Z,13.57
2023-04-21T02:52:20.104Z,13.26
2023-04-21T02:57:23.176Z,13.02
2023-04-21T03:02:26.622Z,12.78
2023-04-21T03:07:30.252Z,12.58
2023-04-21T03:12:33.653Z,12.45
2023-04-21T03:17:37.270Z,12.34
2023-04-21T03:22:40.479Z,12.23
2023-04-21T03:27:43.620Z,12.13
2023-04-21T03:32:47.293Z,12.04
2023-04-21T03:37:50.323Z,11.95
2023-04-21T03:42:53.437Z,11.84
2023-04-21T03:47:57.106Z,11.76
2023-04-21T03:53:00.150Z,11.69
2023-04-21T03:58:03.266Z,11.65
2023-04-21T04:03:07.655Z,11.58
2023-04-21T04:08:10.789Z,11.54
2023-04-21T04:13:13.858Z,11.51
2023-04-21T04:18:16.868Z,11.49
2023-04-21T04:23:19.896Z,11.45
2023-04-21T04:28:23.365Z,11.44
2023-04-21T04:33:27.047Z,12.34
2023-04-21T04:38:30.459Z,15.02
2023-04-21T04:43:39.542Z,15.93
2023-04-21T04:48:42.659Z,14.78
2023-04-21T04:53:45.673Z,14.18
2023-04-21T04:58:48.618Z,13.83
2023-04-21T05:03:51.855Z,13.59
2023-04-21T05:08:55.272Z,13.39
2023-04-21T05:13:58.724Z,13.25
2023-04-21T05:19:02.810Z,13.16
2023-04-21T05:24:05.987Z,13.09
2023-04-21T05:29:09.517Z,13.07
2023-04-21T05:34:12.602Z,13.09
2023-04-21T05:39:21.633Z,13.14
2023-04-21T05:44:27.219Z,13.20
2023-04-21T05:49:30.336Z,13.25
2023-04-21T05:54:33.366Z,13.31
2023-04-21T05:59:36.329Z,13.38
2023-04-21T06:04:39.439Z,13.47
2023-04-21T06:09:42.561Z,13.57
2023-04-21T06:14:45.513Z,13.67
2023-04-21T06:21:06.229Z,13.81
2023-04-21T06:26:10.372Z,13.94
2023-04-21T06:31:16.172Z,14.04
2023-04-21T06:36:19.628Z,14.16
2023-04-21T06:41:24.882Z,14.26
2023-04-21T06:46:28.072Z,14.36
2023-04-21T06:51:32.315Z,14.48
2023-04-21T06:56:36.187Z,14.64
2023-04-21T07:01:39.921Z,14.77
2023-04-21T07:06:43.713Z,14.90
2023-04-21T07:11:46.654Z,15.02
2023-04-21T07:16:49.634Z,15.12
2023-04-21T07:21:52.615Z,15.21
2023-04-21T07:26:56.596Z,15.30
2023-04-21T07:31:59.641Z,15.38
2023-04-21T07:37:02.618Z,15.47
2023-04-21T07:42:08.331Z,15.58
2023-04-21T07:47:11.968Z,15.70
2023-04-21T07:52:15.025Z,15.81
2023-04-21T07:57:18.175Z,15.92
2023-04-21T08:02:21.297Z,16.02
2023-04-21T08:07:24.396Z,16.14
2023-04-21T08:12:27.529Z,16.25
2023-04-21T08:17:30.679Z,16.36
2023-04-21T08:22:33.816Z,16.47
2023-04-21T08:27:40.208Z,16.57
2023-04-21T08:32:46.257Z,16.67
2023-04-21T08:37:50.976Z,16.79
2023-04-21T08:42:54.655Z,16.87
2023-04-21T08:47:59.673Z,16.96
2023-04-21T08:53:03.785Z,17.09
2023-04-21T08:58:07.142Z,17.24
2023-04-21T09:03:19.354Z,17.40
2023-04-21T09:08:30.592Z,17.58
2023-04-21T09:13:36.062Z,17.77
2023-04-21T09:18:40.499Z,17.98
2023-04-21T09:23:47.895Z,18.15
2023-04-21T09:28:52.679Z,18.28
2023-04-21T09:34:00.350Z,18.45
2023-04-21T09:44:12.181Z,18.75
2023-04-21T09:49:17.733Z,18.92
2023-04-21T09:59:37.114Z,19.17
2023-04-21T10:04:43.216Z,19.38
2023-04-21T10:09:51.111Z,19.67
2023-04-21T10:14:57.296Z,19.77
2023-04-21T10:20:00.429Z,19.87
2023-04-21T10:25:08.514Z,19.88
2023-04-21T10:30:22.990Z,19.94
2023-04-21T10:35:26.268Z,20.21
2023-04-21T10:40:44.330Z,20.49
2023-04-21T10:45:47.684Z,20.68
2023-04-21T10:50:50.735Z,20.86
2023-04-21T10:55:54.151Z,21.08
2023-04-21T11:00:57.635Z,21.13
2023-04-21T11:06:00.707Z,21.16
2023-04-21T11:11:03.988Z,21.21
2023-04-21T11:16:07.543Z,21.11
2023-04-21T11:21:12.087Z,20.92
2023-04-21T11:26:15.594Z,20.74
2023-04-21T11:31:18.739Z,20.78
2023-04-21T11:36:22.796Z,20.89
2023-04-21T11:41:26.001Z,20.95
2023-04-21T11:46:29.382Z,21.14
2023-04-21T11:51:43.801Z,21.37
2023-04-21T11:56:47.939Z,21.69
2023-04-21T12:01:53.797Z,22.04
2023-04-21T12:06:59.405Z,22.35
2023-04-21T12:12:05.485Z,22.67
2023-04-21T12:17:08.440Z,22.87
2023-04-21T12:22:18.342Z,22.86
2023-04-21T12:27:21.650Z,22.74
2023-04-21T12:32:24.635Z,22.72
2023-04-21T12:37:27.700Z,22.84
2023-04-21T12:42:31.312Z,22.88
2023-04-21T12:47:37.170Z,22.74
2023-04-21T12:52:40.422Z,22.78
2023-04-21T12:57:44.328Z,23.00
2023-04-21T13:02:47.759Z,23.25
2023-04-21T13:07:51.094Z,23.47
2023-04-21T13:12:54.389Z,23.57
2023-04-21T13:17:58.512Z,23.80
2023-04-21T13:23:01.816Z,24.06
2023-04-21T13:28:05.043Z,24.33
2023-04-21T13:33:08.281Z,24.57
2023-04-21T13:38:12.387Z,24.76
2023-04-21T13:43:15.639Z,24.93
2023-04-21T13:48:23.713Z,25.07
2023-04-21T13:53:27.031Z,25.15
2023-04-21T13:58:30.974Z,25.24
2023-04-21T14:03:34.157Z,25.30
2023-04-21T14:08:37.358Z,25.32
2023-04-21T14:13:49.198Z,25.34
2023-04-21T14:19:06.637Z,25.34
2023-04-21T14:24:10.180Z,25.20
2023-04-21T14:29:13.516Z,25.02
2023-04-21T14:34:16.479Z,24.77
2023-04-21T14:39:20.061Z,24.44
2023-04-21T14:44:23.191Z,24.02
2023-04-21T14:49:28.881Z,23.56
2023-04-21T14:54:31.965Z,23.15
2023-04-21T14:59:35.511Z,22.80
2023-04-21T15:04:39.010Z,22.50
2023-04-21T15:09:45.838Z,22.24
2023-04-21T15:14:49.044Z,22.02
2023-04-21T15:19:52.102Z,21.84
2023-04-21T15:24:55.405Z,21.71
2023-04-21T15:29:58.915Z,21.59
2023-04-21T15:35:02.414Z,21.43
2023-04-21T15:40:06.259Z,21.36
2023-04-21T15:45:10.068Z,21.30
2023-04-21T15:50:13.134Z,21.29
2023-04-21T15:55:27.382Z,21.39
2023-04-21T16:00:30.685Z,22.02
2023-04-21T16:05:34.072Z,23.41
2023-04-21T16:10:40.049Z,24.60
2023-04-21T16:15:46.924Z,24.88
2023-04-21T16:20:50.145Z,24.51
2023-04-21T16:25:53.710Z,24.20
2023-04-21T16:30:56.738Z,23.86
2023-04-21T16:35:59.743Z,23.46
2023-04-21T16:41:03.813Z,22.99
2023-04-21T16:46:06.856Z,22.55
2023-04-21T16:51:12.512Z,22.11
2023-04-21T16:56:16.866Z,21.70
2023-04-21T17:01:19.924Z,21.31
2023-04-21T17:06:23.010Z,20.98
2023-04-21T17:11:28.088Z,20.67
2023-04-21T17:16:31.459Z,20.41
2023-04-21T17:21:34.485Z,20.16
2023-04-21T17:26:37.651Z,19.93
2023-04-21T17:31:41.427Z,19.70
2023-04-21T17:36:45.018Z,19.50
2023-04-21T17:41:48.632Z,19.31
2023-04-21T17:46:52.417Z,19.14
2023-04-21T17:51:55.524Z,19.01
2023-04-21T17:56:58.667Z,18.88
2023-04-21T18:02:01.984Z,18.78
2023-04-21T18:07:05.174Z,18.70
2023-04-21T18:12:08.202Z,18.62
2023-04-21T18:17:11.756Z,18.45
2023-04-21T18:22:15.031Z,18.24
2023-04-21T18:27:18.052Z,18.03
2023-04-21T18:32:21.547Z,17.83
2023-04-21T18:37:24.614Z,17.64
2023-04-21T18:42:28.579Z,17.46
2023-04-21T18:47:31.841Z,17.30
2023-04-21T18:52:34.953Z,17.13
2023-04-21T18:57:37.900Z,16.98
2023-04-21T19:02:41.229Z,16.83
2023-04-21T19:07:44.836Z,16.68
2023-04-21T19:12:48.156Z,16.55
2023-04-21T19:17:52.683Z,16.40
2023-04-21T19:22:55.824Z,16.26
2023-04-21T19:27:59.080Z,16.13
2023-04-21T19:33:02.564Z,16.00
2023-04-21T19:38:07.116Z,15.89
2023-04-21T19:43:10.341Z,15.77
2023-04-21T19:48:14.568Z,15.67
2023-04-21T19:53:18.616Z,15.56
2023-04-21T19:58:36.214Z,15.45
2023-04-21T20:03:42.672Z,15.35
2023-04-21T20:08:45.830Z,15.24
2023-04-21T20:13:49.161Z,15.14
2023-04-21T20:18:53.017Z,15.02
2023-04-21T20:29:34.038Z,14.76
2023-04-21T20:34:37.088Z,14.63
2023-04-21T20:39:41.528Z,14.53
2023-04-21T20:44:45.166Z,14.42
2023-04-21T20:49:48.438Z,14.32
2023-04-21T20:54:51.673Z,14.22
2023-04-21T20:59:54.955Z,14.13
2023-04-21T21:04:58.097Z,14.03
2023-04-21T21:10:01.200Z,13.92
2023-04-21T21:15:05.530Z,13.83
2023-04-21T21:20:09.139Z,13.73
2023-04-21T21:25:12.448Z,13.63
2023-04-21T21:30:15.863Z,13.54
2023-04-21T21:35:18.973Z,13.44
2023-04-21T21:40:22.277Z,13.35
2023-04-21T21:45:25.332Z,13.28
2023-04-21T21:50:28.388Z,13.20
2023-04-21T21:55:31.420Z,13.12
2023-04-21T22:00:34.831Z,13.03
2023-04-21T22:05:39.115Z,12.96
2023-04-21T22:10:43.268Z,12.89
2023-04-21T22:15:46.362Z,12.82
2023-04-21T22:20:49.490Z,12.75
2023-04-21T22:25:52.724Z,12.70
2023-04-21T22:30:56.379Z,12.66
2023-04-21T22:35:59.474Z,12.62
2023-04-21T22:41:02.620Z,12.59
2023-04-21T22:47:28.562Z,12.53
2023-04-21T22:52:31.672Z,12.50
2023-04-21T22:57:37.445Z,12.46
2023-04-21T23:02:40.484Z,12.41
2023-04-21T23:07:43.954Z,12.38
2023-04-21T23:12:47.131Z,12.32
2023-04-21T23:17:50.547Z,12.27
2023-04-21T23:22:54.027Z,12.22
2023-04-21T23:27:57.097Z,12.15
2023-04-21T23:33:00.472Z,12.08
2023-04-21T23:38:04.105Z,12.02
2023-04-21T23:43:07.617Z,11.93
2023-04-21T23:48:11.793Z,11.84
